sensor_id;sensor_type;location;lat;lon;timestamp;P1;durP1;ratioP1;P2;durP2;ratioP2
71296;SDS011;59082;50.658;4.608;2023-02-28T06:30:20;10.98;;;9.05;;
71296;SDS011;59082;50.658;4.608;2023-02-28T06:32:50;14.57;;;8.63;;
71296;SDS011;59082;50.658;4.608;2023-02-28T06:35:17;9.95;;;8.18;;
71296;SDS011;59082;50.658;4.608;2023-02-28T06:37:42;12.00;;;7.80;;
71296;SDS011;59082;50.658;4.608;2023-02-28T06:40:09;10.65;;;9.13;;
71296;SDS011;59082;50.658;4.608;2023-02-28T06:42:36;12.30;;;8.18;;
71296;SDS011;59082;50.658;4.608;2023-02-28T06:45:02;10.23;;;9.15;;
71296;SDS011;59082;50.658;4.608;2023-02-28T06:47:34;9.82;;;8.50;;
71296;SDS011;59082;50.658;4.608;2023-02-28T06:50:01;11.32;;;8.43;;
71296;SDS011;59082;50.658;4.608;2023-02-28T06:52:28;12.18;;;8.75;;
71296;SDS011;59082;50.658;4.608;2023-02-28T06:54:54;9.77;;;7.82;;
71296;SDS011;59082;50.658;4.608;2023-02-28T06:57:24;17.23;;;9.48;;
71296;SDS011;59082;50.658;4.608;2023-02-28T06:59:57;11.88;;;9.20;;
71296;SDS011;59082;50.658;4.608;2023-02-28T07:02:24;9.63;;;8.15;;
71296;SDS011;59082;50.658;4.608;2023-02-28T07:04:50;10.85;;;8.20;;
71296;SDS011;59082;50.658;4.608;2023-02-28T07:07:16;11.90;;;9.13;;
71296;SDS011;59082;50.658;4.608;2023-02-28T07:09:43;14.88;;;9.93;;
71296;SDS011;59082;50.658;4.608;2023-02-28T07:12:08;14.85;;;9.80;;
71296;SDS011;59082;50.658;4.608;2023-02-28T07:14:36;12.47;;;9.13;;
71296;SDS011;59082;50.658;4.608;2023-02-28T07:20:05;14.82;;;9.65;;
71296;SDS011;59082;50.658;4.608;2023-02-28T07:22:31;13.23;;;9.20;;
71296;SDS011;59082;50.658;4.608;2023-02-28T07:24:57;17.92;;;9.90;;
71296;SDS011;59082;50.658;4.608;2023-02-28T07:27:23;13.15;;;9.75;;
71296;SDS011;59082;50.658;4.608;2023-02-28T07:29:51;13.57;;;8.73;;
71296;SDS011;59082;50.658;4.608;2023-02-28T07:32:18;14.90;;;9.90;;
71296;SDS011;59082;50.658;4.608;2023-02-28T07:34:44;15.40;;;10.57;;
71296;SDS011;59082;50.658;4.608;2023-02-28T07:37:10;14.70;;;10.20;;
71296;SDS011;59082;50.658;4.608;2023-02-28T07:39:36;26.57;;;10.90;;
71296;SDS011;59082;50.658;4.608;2023-02-28T07:42:05;16.25;;;10.13;;
71296;SDS011;59082;50.658;4.608;2023-02-28T07:44:32;12.68;;;9.70;;
71296;SDS011;59082;50.658;4.608;2023-02-28T07:46:58;12.90;;;8.40;;
71296;SDS011;59082;50.658;4.608;2023-02-28T07:49:27;11.30;;;8.23;;
71296;SDS011;59082;50.658;4.608;2023-02-28T07:51:53;10.48;;;8.07;;
71296;SDS011;59082;50.658;4.608;2023-02-28T07:54:18;12.23;;;8.03;;
71296;SDS011;59082;50.658;4.608;2023-02-28T07:56:51;10.95;;;7.80;;
71296;SDS011;59082;50.658;4.608;2023-02-28T07:59:16;10.60;;;7.20;;
71296;SDS011;59082;50.658;4.608;2023-02-28T08:01:48;11.63;;;6.53;;
71296;SDS011;59082;50.658;4.608;2023-02-28T08:04:17;9.40;;;6.78;;
71296;SDS011;59082;50.658;4.608;2023-02-28T08:06:45;8.73;;;6.07;;
71296;SDS011;59082;50.658;4.608;2023-02-28T08:09:14;10.90;;;6.60;;
71296;SDS011;59082;50.658;4.608;2023-02-28T08:11:39;7.75;;;5.75;;
71296;SDS011;59082;50.658;4.608;2023-02-28T08:14:05;8.00;;;7.20;;
71296;SDS011;59082;50.658;4.608;2023-02-28T08:16:31;9.75;;;5.95;;
71296;SDS011;59082;50.658;4.608;2023-02-28T08:18:56;8.77;;;6.00;;
71296;SDS011;59082;50.658;4.608;2023-02-28T08:21:22;9.23;;;6.30;;
71296;SDS011;59082;50.658;4.608;2023-02-28T08:23:48;9.82;;;6.47;;
71296;SDS011;59082;50.658;4.608;2023-02-28T08:26:18;8.60;;;6.53;;
71296;SDS011;59082;50.658;4.608;2023-02-28T08:28:46;7.37;;;5.97;;
71296;SDS011;59082;50.658;4.608;2023-02-28T08:31:12;9.93;;;6.15;;
71296;SDS011;59082;50.658;4.608;2023-02-28T08:33:40;8.32;;;6.68;;
71296;SDS011;59082;50.658;4.608;2023-02-28T08:36:07;8.07;;;6.35;;
71296;SDS011;59082;50.658;4.608;2023-02-28T08:38:34;7.55;;;6.10;;
71296;SDS011;59082;50.658;4.608;2023-02-28T08:41:00;5.67;;;5.17;;
71296;SDS011;59082;50.658;4.608;2023-02-28T08:43:28;6.90;;;5.43;;
71296;SDS011;59082;50.658;4.608;2023-02-28T08:45:56;8.15;;;6.03;;
71296;SDS011;59082;50.658;4.608;2023-02-28T08:48:24;7.80;;;6.78;;
71296;SDS011;59082;50.658;4.608;2023-02-28T08:51:00;7.43;;;5.63;;
71296;SDS011;59082;50.658;4.608;2023-02-28T08:53:33;7.07;;;5.50;;
71296;SDS011;59082;50.658;4.608;2023-02-28T08:56:04;6.82;;;6.10;;
71296;SDS011;59082;50.658;4.608;2023-02-28T08:58:33;8.18;;;6.60;;
71296;SDS011;59082;50.658;4.608;2023-02-28T09:01:12;6.95;;;5.85;;
71296;SDS011;59082;50.658;4.608;2023-02-28T09:03:40;10.02;;;7.30;;
71296;SDS011;59082;50.658;4.608;2023-02-28T09:06:13;7.60;;;7.00;;
71296;SDS011;59082;50.658;4.608;2023-02-28T09:08:41;7.18;;;6.47;;
71296;SDS011;59082;50.658;4.608;2023-02-28T09:11:09;7.93;;;6.88;;
71296;SDS011;59082;50.658;4.608;2023-02-28T09:13:37;7.10;;;6.50;;
71296;SDS011;59082;50.658;4.608;2023-02-28T09:16:07;7.80;;;7.10;;
71296;SDS011;59082;50.658;4.608;2023-02-28T09:18:35;7.10;;;6.50;;
71296;SDS011;59082;50.658;4.608;2023-02-28T09:21:09;8.27;;;7.00;;
71296;SDS011;59082;50.658;4.608;2023-02-28T09:23:39;6.85;;;6.25;;
71296;SDS011;59082;50.658;4.608;2023-02-28T09:26:07;6.68;;;6.07;;
71296;SDS011;59082;50.658;4.608;2023-02-28T09:28:38;6.03;;;5.57;;
71296;SDS011;59082;50.658;4.608;2023-02-28T09:31:03;5.67;;;5.27;;
71296;SDS011;59082;50.658;4.608;2023-02-28T09:33:29;5.65;;;5.15;;
71296;SDS011;59082;50.658;4.608;2023-02-28T09:35:59;6.97;;;6.27;;
71296;SDS011;59082;50.658;4.608;2023-02-28T09:40:59;7.07;;;5.65;;
71296;SDS011;59082;50.658;4.608;2023-02-28T09:43:35;10.60;;;6.53;;
71296;SDS011;59082;50.658;4.608;2023-02-28T09:46:12;10.25;;;7.68;;
71296;SDS011;59082;50.658;4.608;2023-02-28T09:48:47;5.80;;;5.30;;
71296;SDS011;59082;50.658;4.608;2023-02-28T09:53:59;6.38;;;5.88;;
71296;SDS011;59082;50.658;4.608;2023-02-28T09:56:49;5.45;;;5.05;;
71296;SDS011;59082;50.658;4.608;2023-02-28T09:59:24;5.97;;;5.53;;
71296;SDS011;59082;50.658;4.608;2023-02-28T10:15:55;6.03;;;5.63;;
71296;SDS011;59082;50.658;4.608;2023-02-28T10:18:30;8.15;;;6.03;;
71296;SDS011;59082;50.658;4.608;2023-02-28T10:21:09;6.22;;;5.55;;
71296;SDS011;59082;50.658;4.608;2023-02-28T10:24:43;6.85;;;6.03;;
71296;SDS011;59082;50.658;4.608;2023-02-28T10:29:31;5.22;;;4.72;;
71296;SDS011;59082;50.658;4.608;2023-02-28T10:32:00;6.68;;;6.22;;
71296;SDS011;59082;50.658;4.608;2023-02-28T10:34:27;6.28;;;5.60;;
71296;SDS011;59082;50.658;4.608;2023-02-28T10:36:54;5.53;;;5.23;;
71296;SDS011;59082;50.658;4.608;2023-02-28T10:42:28;6.38;;;5.88;;
71296;SDS011;59082;50.658;4.608;2023-02-28T10:45:15;6.53;;;5.82;;
71296;SDS011;59082;50.658;4.608;2023-02-28T10:48:04;7.10;;;6.38;;
71296;SDS011;59082;50.658;4.608;2023-02-28T10:50:43;8.00;;;7.40;;
71296;SDS011;59082;50.658;4.608;2023-02-28T10:56:00;6.88;;;6.28;;
71296;SDS011;59082;50.658;4.608;2023-02-28T10:58:42;7.10;;;6.43;;
71296;SDS011;59082;50.658;4.608;2023-02-28T11:01:18;7.18;;;6.57;;
71296;SDS011;59082;50.658;4.608;2023-02-28T11:03:48;6.03;;;5.63;;
71296;SDS011;59082;50.658;4.608;2023-02-28T11:06:29;6.10;;;5.70;;
71296;SDS011;59082;50.658;4.608;2023-02-28T11:08:58;6.82;;;6.32;;
71296;SDS011;59082;50.658;4.608;2023-02-28T11:11:43;5.97;;;5.57;;
71296;SDS011;59082;50.658;4.608;2023-02-28T11:14:23;7.43;;;6.93;;
71296;SDS011;59082;50.658;4.608;2023-02-28T11:17:38;6.97;;;6.37;;
71296;SDS011;59082;50.658;4.608;2023-02-28T11:20:05;7.43;;;7.03;;
71296;SDS011;59082;50.658;4.608;2023-02-28T11:22:37;6.50;;;6.10;;
71296;SDS011;59082;50.658;4.608;2023-02-28T11:25:28;7.43;;;6.83;;
71296;SDS011;59082;50.658;4.608;2023-02-28T11:28:00;6.60;;;6.20;;
71296;SDS011;59082;50.658;4.608;2023-02-28T11:30:34;7.50;;;6.60;;
71296;SDS011;59082;50.658;4.608;2023-02-28T11:33:27;9.15;;;8.50;;
71296;SDS011;59082;50.658;4.608;2023-02-28T11:36:15;3.75;;;3.17;;
71296;SDS011;59082;50.658;4.608;2023-02-28T11:38:42;6.33;;;5.93;;
71296;SDS011;59082;50.658;4.608;2023-02-28T11:46:47;7.85;;;7.28;;
71296;SDS011;59082;50.658;4.608;2023-02-28T11:51:59;7.23;;;6.63;;
71296;SDS011;59082;50.658;4.608;2023-02-28T12:05:45;5.23;;;4.73;;
71296;SDS011;59082;50.658;4.608;2023-02-28T12:11:40;6.35;;;5.85;;
71296;SDS011;59082;50.658;4.608;2023-02-28T12:14:25;6.72;;;6.32;;
71296;SDS011;59082;50.658;4.608;2023-02-28T12:28:13;3.75;;;3.45;;
71296;SDS011;59082;50.658;4.608;2023-02-28T12:30:46;4.43;;;3.85;;
71296;SDS011;59082;50.658;4.608;2023-02-28T12:33:21;5.00;;;4.60;;
71296;SDS011;59082;50.658;4.608;2023-02-28T12:35:54;7.35;;;4.90;;
71296;SDS011;59082;50.658;4.608;2023-02-28T12:38:22;6.10;;;5.60;;
71296;SDS011;59082;50.658;4.608;2023-02-28T12:41:40;4.10;;;3.47;;
71296;SDS011;59082;50.658;4.608;2023-02-28T12:44:19;4.45;;;4.05;;
71296;SDS011;59082;50.658;4.608;2023-02-28T12:46:57;5.23;;;4.73;;
71296;SDS011;59082;50.658;4.608;2023-02-28T12:52:37;4.30;;;3.92;;
71296;SDS011;59082;50.658;4.608;2023-02-28T12:58:14;4.15;;;3.75;;
71296;SDS011;59082;50.658;4.608;2023-02-28T13:09:14;4.50;;;3.83;;
71296;SDS011;59082;50.658;4.608;2023-02-28T13:11:56;5.63;;;3.45;;
71296;SDS011;59082;50.658;4.608;2023-02-28T13:19:43;3.47;;;3.13;;
71296;SDS011;59082;50.658;4.608;2023-02-28T13:22:16;3.53;;;3.10;;
71296;SDS011;59082;50.658;4.608;2023-02-28T13:24:56;4.00;;;3.17;;
71296;SDS011;59082;50.658;4.608;2023-02-28T13:27:23;3.00;;;2.77;;
71296;SDS011;59082;50.658;4.608;2023-02-28T13:36:08;6.40;;;5.40;;
71296;SDS011;59082;50.658;4.608;2023-02-28T13:38:37;3.05;;;2.78;;
71296;SDS011;59082;50.658;4.608;2023-02-28T13:49:25;9.82;;;4.95;;
71296;SDS011;59082;50.658;4.608;2023-02-28T13:55:06;5.57;;;5.07;;
71296;SDS011;59082;50.658;4.608;2023-02-28T13:58:03;3.80;;;3.50;;
71296;SDS011;59082;50.658;4.608;2023-02-28T14:03:24;2.67;;;2.47;;
71296;SDS011;59082;50.658;4.608;2023-02-28T14:06:09;7.45;;;4.38;;
71296;SDS011;59082;50.658;4.608;2023-02-28T14:08:57;5.70;;;3.37;;
71296;SDS011;59082;50.658;4.608;2023-02-28T14:11:28;4.10;;;3.33;;
71296;SDS011;59082;50.658;4.608;2023-02-28T14:13:58;3.55;;;3.25;;
71296;SDS011;59082;50.658;4.608;2023-02-28T14:16:26;5.00;;;3.53;;
71296;SDS011;59082;50.658;4.608;2023-02-28T14:18:58;2.95;;;2.72;;
71296;SDS011;59082;50.658;4.608;2023-02-28T14:21:32;4.50;;;4.10;;
71296;SDS011;59082;50.658;4.608;2023-02-28T14:33:04;3.22;;;2.97;;
71296;SDS011;59082;50.658;4.608;2023-02-28T14:38:51;4.05;;;3.00;;
71296;SDS011;59082;50.658;4.608;2023-02-28T14:41:37;4.15;;;3.80;;
71296;SDS011;59082;50.658;4.608;2023-02-28T14:44:14;5.80;;;3.47;;
71296;SDS011;59082;50.658;4.608;2023-02-28T14:46:45;4.18;;;3.85;;
71296;SDS011;59082;50.658;4.608;2023-02-28T14:49:23;10.20;;;4.10;;
71296;SDS011;59082;50.658;4.608;2023-02-28T14:54:35;5.00;;;4.47;;
71296;SDS011;59082;50.658;4.608;2023-02-28T14:57:02;5.78;;;5.18;;
71296;SDS011;59082;50.658;4.608;2023-02-28T14:59:32;9.15;;;8.25;;
71296;SDS011;59082;50.658;4.608;2023-02-28T15:02:19;4.37;;;3.70;;
71296;SDS011;59082;50.658;4.608;2023-02-28T15:04:54;7.05;;;6.32;;
71296;SDS011;59082;50.658;4.608;2023-02-28T15:07:35;4.45;;;4.05;;
71296;SDS011;59082;50.658;4.608;2023-02-28T15:10:13;9.48;;;8.38;;
71296;SDS011;59082;50.658;4.608;2023-02-28T15:15:25;5.83;;;4.07;;
71296;SDS011;59082;50.658;4.608;2023-02-28T15:21:02;5.93;;;5.43;;
71296;SDS011;59082;50.658;4.608;2023-02-28T15:23:32;8.45;;;7.40;;
71296;SDS011;59082;50.658;4.608;2023-02-28T15:26:01;7.75;;;4.47;;
71296;SDS011;59082;50.658;4.608;2023-02-28T15:28:28;6.67;;;6.17;;
71296;SDS011;59082;50.658;4.608;2023-02-28T15:31:01;6.30;;;5.70;;
71296;SDS011;59082;50.658;4.608;2023-02-28T15:33:57;5.15;;;4.65;;
71296;SDS011;59082;50.658;4.608;2023-02-28T15:36:29;5.35;;;4.85;;
71296;SDS011;59082;50.658;4.608;2023-02-28T15:38:58;5.03;;;3.10;;
71296;SDS011;59082;50.658;4.608;2023-02-28T15:41:35;6.27;;;5.73;;
71296;SDS011;59082;50.658;4.608;2023-02-28T15:44:22;8.30;;;5.80;;
71296;SDS011;59082;50.658;4.608;2023-02-28T15:46:58;14.15;;;9.75;;
71296;SDS011;59082;50.658;4.608;2023-02-28T15:49:51;5.63;;;4.18;;
71296;SDS011;59082;50.658;4.608;2023-02-28T15:52:24;8.05;;;7.25;;
71296;SDS011;59082;50.658;4.608;2023-02-28T15:54:56;7.33;;;6.13;;
71296;SDS011;59082;50.658;4.608;2023-02-28T15:57:26;4.57;;;4.10;;
71296;SDS011;59082;50.658;4.608;2023-02-28T15:59:58;4.63;;;4.22;;
71296;SDS011;59082;50.658;4.608;2023-02-28T16:02:33;6.70;;;5.18;;
71296;SDS011;59082;50.658;4.608;2023-02-28T16:07:35;13.40;;;12.20;;
71296;SDS011;59082;50.658;4.608;2023-02-28T16:10:05;6.75;;;4.43;;
71296;SDS011;59082;50.658;4.608;2023-02-28T16:12:33;4.30;;;3.90;;
71296;SDS011;59082;50.658;4.608;2023-02-28T16:15:01;5.53;;;4.10;;
71296;SDS011;59082;50.658;4.608;2023-02-28T16:17:32;6.25;;;4.53;;
71296;SDS011;59082;50.658;4.608;2023-02-28T16:19:59;5.00;;;4.53;;
71296;SDS011;59082;50.658;4.608;2023-02-28T16:22:26;4.93;;;4.43;;
71296;SDS011;59082;50.658;4.608;2023-02-28T16:24:51;6.90;;;4.28;;
71296;SDS011;59082;50.658;4.608;2023-02-28T16:27:29;6.83;;;3.57;;
71296;SDS011;59082;50.658;4.608;2023-02-28T16:29:58;4.45;;;2.90;;
71296;SDS011;59082;50.658;4.608;2023-02-28T16:32:24;5.43;;;4.93;;
71296;SDS011;59082;50.658;4.608;2023-02-28T16:34:49;4.67;;;4.27;;
71296;SDS011;59082;50.658;4.608;2023-02-28T16:37:16;7.10;;;6.50;;
71296;SDS011;59082;50.658;4.608;2023-02-28T16:39:43;4.35;;;3.95;;
71296;SDS011;59082;50.658;4.608;2023-02-28T16:42:15;5.28;;;4.40;;
71296;SDS011;59082;50.658;4.608;2023-02-28T16:44:50;4.15;;;3.75;;
71296;SDS011;59082;50.658;4.608;2023-02-28T16:49:47;4.17;;;3.77;;
71296;SDS011;59082;50.658;4.608;2023-02-28T16:52:14;4.05;;;3.65;;
71296;SDS011;59082;50.658;4.608;2023-02-28T16:54:46;4.63;;;4.13;;
71296;SDS011;59082;50.658;4.608;2023-02-28T16:57:20;5.05;;;3.90;;
71296;SDS011;59082;50.658;4.608;2023-02-28T16:59:49;4.78;;;3.42;;
71296;SDS011;59082;50.658;4.608;2023-02-28T17:02:18;4.93;;;4.13;;
71296;SDS011;59082;50.658;4.608;2023-02-28T17:04:44;4.53;;;4.13;;
71296;SDS011;59082;50.658;4.608;2023-02-28T17:07:11;4.63;;;4.22;;
71296;SDS011;59082;50.658;4.608;2023-02-28T17:09:39;5.32;;;4.38;;
71296;SDS011;59082;50.658;4.608;2023-02-28T17:12:05;6.10;;;3.83;;
71296;SDS011;59082;50.658;4.608;2023-02-28T17:14:32;5.17;;;3.73;;
71296;SDS011;59082;50.658;4.608;2023-02-28T17:16:58;4.35;;;3.35;;
71296;SDS011;59082;50.658;4.608;2023-02-28T17:19:24;4.22;;;3.83;;
71296;SDS011;59082;50.658;4.608;2023-02-28T17:21:49;4.00;;;3.60;;
71296;SDS011;59082;50.658;4.608;2023-02-28T17:24:16;4.90;;;3.85;;
71296;SDS011;59082;50.658;4.608;2023-02-28T17:26:42;3.93;;;3.23;;
71296;SDS011;59082;50.658;4.608;2023-02-28T17:29:15;5.20;;;3.92;;
71296;SDS011;59082;50.658;4.608;2023-02-28T17:31:46;7.40;;;3.90;;
71296;SDS011;59082;50.658;4.608;2023-02-28T17:34:12;5.10;;;3.80;;
71296;SDS011;59082;50.658;4.608;2023-02-28T17:36:43;10.13;;;8.63;;
71296;SDS011;59082;50.658;4.608;2023-02-28T17:39:10;12.17;;;10.43;;
71296;SDS011;59082;50.658;4.608;2023-02-28T17:41:40;7.10;;;5.68;;
71296;SDS011;59082;50.658;4.608;2023-02-28T17:44:07;6.72;;;5.30;;
71296;SDS011;59082;50.658;4.608;2023-02-28T17:46:33;5.28;;;4.72;;
71296;SDS011;59082;50.658;4.608;2023-02-28T17:48:59;8.97;;;6.17;;
71296;SDS011;59082;50.658;4.608;2023-02-28T17:51:25;11.27;;;9.90;;
71296;SDS011;59082;50.658;4.608;2023-02-28T17:53:51;12.52;;;10.65;;
71296;SDS011;59082;50.658;4.608;2023-02-28T17:56:27;10.07;;;9.07;;
71296;SDS011;59082;50.658;4.608;2023-02-28T17:58:53;9.88;;;8.75;;
71296;SDS011;59082;50.658;4.608;2023-02-28T18:01:20;10.77;;;8.30;;
71296;SDS011;59082;50.658;4.608;2023-02-28T18:03:47;14.48;;;10.68;;
71296;SDS011;59082;50.658;4.608;2023-02-28T18:06:16;10.68;;;7.07;;
71296;SDS011;59082;50.658;4.608;2023-02-28T18:08:47;5.03;;;4.47;;
71296;SDS011;59082;50.658;4.608;2023-02-28T18:11:13;13.68;;;11.73;;
71296;SDS011;59082;50.658;4.608;2023-02-28T18:13:49;15.02;;;12.13;;
71296;SDS011;59082;50.658;4.608;2023-02-28T18:16:17;17.13;;;13.63;;
71296;SDS011;59082;50.658;4.608;2023-02-28T18:18:44;8.50;;;7.60;;
71296;SDS011;59082;50.658;4.608;2023-02-28T18:21:11;12.00;;;9.37;;
71296;SDS011;59082;50.658;4.608;2023-02-28T18:23:39;19.15;;;14.43;;
71296;SDS011;59082;50.658;4.608;2023-02-28T18:26:17;12.38;;;11.05;;
71296;SDS011;59082;50.658;4.608;2023-02-28T18:28:43;15.23;;;10.38;;
71296;SDS011;59082;50.658;4.608;2023-02-28T18:31:10;13.80;;;10.27;;
71296;SDS011;59082;50.658;4.608;2023-02-28T18:33:39;14.27;;;8.80;;
71296;SDS011;59082;50.658;4.608;2023-02-28T18:36:05;15.45;;;8.07;;
71296;SDS011;59082;50.658;4.608;2023-02-28T18:38:31;10.27;;;8.20;;
71296;SDS011;59082;50.658;4.608;2023-02-28T18:40:58;8.33;;;5.97;;
71296;SDS011;59082;50.658;4.608;2023-02-28T18:43:28;9.25;;;6.80;;
71296;SDS011;59082;50.658;4.608;2023-02-28T18:45:55;8.65;;;6.10;;
71296;SDS011;59082;50.658;4.608;2023-02-28T18:48:21;13.03;;;10.23;;
71296;SDS011;59082;50.658;4.608;2023-02-28T18:50:50;12.02;;;8.98;;
71296;SDS011;59082;50.658;4.608;2023-02-28T18:53:16;17.00;;;9.98;;
71296;SDS011;59082;50.658;4.608;2023-02-28T18:55:45;35.47;;;25.20;;
71296;SDS011;59082;50.658;4.608;2023-02-28T18:58:11;10.47;;;8.67;;
71296;SDS011;59082;50.658;4.608;2023-02-28T19:00:38;10.63;;;7.13;;
71296;SDS011;59082;50.658;4.608;2023-02-28T19:03:04;7.43;;;6.18;;
71296;SDS011;59082;50.658;4.608;2023-02-28T19:05:29;9.45;;;7.25;;
71296;SDS011;59082;50.658;4.608;2023-02-28T19:07:59;17.50;;;11.57;;
71296;SDS011;59082;50.658;4.608;2023-02-28T19:10:26;9.68;;;7.40;;
71296;SDS011;59082;50.658;4.608;2023-02-28T19:12:52;9.53;;;7.13;;
71296;SDS011;59082;50.658;4.608;2023-02-28T19:15:17;10.60;;;6.70;;
71296;SDS011;59082;50.658;4.608;2023-02-28T19:17:43;14.70;;;12.57;;
71296;SDS011;59082;50.658;4.608;2023-02-28T19:20:10;10.55;;;7.97;;
71296;SDS011;59082;50.658;4.608;2023-02-28T19:22:37;8.73;;;6.43;;
71296;SDS011;59082;50.658;4.608;2023-02-28T19:25:03;11.10;;;8.30;;
71296;SDS011;59082;50.658;4.608;2023-02-28T19:27:29;12.77;;;7.60;;
71296;SDS011;59082;50.658;4.608;2023-02-28T19:29:55;10.50;;;6.95;;
71296;SDS011;59082;50.658;4.608;2023-02-28T19:32:23;10.50;;;7.27;;
71296;SDS011;59082;50.658;4.608;2023-02-28T19:34:50;8.95;;;6.97;;
71296;SDS011;59082;50.658;4.608;2023-02-28T19:37:15;11.20;;;8.95;;
71296;SDS011;59082;50.658;4.608;2023-02-28T19:39:44;9.40;;;6.95;;
71296;SDS011;59082;50.658;4.608;2023-02-28T19:42:11;8.18;;;6.20;;
71296;SDS011;59082;50.658;4.608;2023-02-28T19:44:39;8.18;;;6.88;;
71296;SDS011;59082;50.658;4.608;2023-02-28T19:47:05;8.68;;;6.63;;
71296;SDS011;59082;50.658;4.608;2023-02-28T19:49:32;10.20;;;6.97;;
71296;SDS011;59082;50.658;4.608;2023-02-28T19:51:58;8.98;;;6.53;;
71296;SDS011;59082;50.658;4.608;2023-02-28T19:54:25;6.90;;;6.05;;
71296;SDS011;59082;50.658;4.608;2023-02-28T19:56:51;9.40;;;6.13;;
71296;SDS011;59082;50.658;4.608;2023-02-28T19:59:23;8.45;;;5.28;;
71296;SDS011;59082;50.658;4.608;2023-02-28T20:01:49;12.33;;;6.13;;
71296;SDS011;59082;50.658;4.608;2023-02-28T20:04:18;8.43;;;6.18;;
71296;SDS011;59082;50.658;4.608;2023-02-28T20:06:44;9.23;;;5.88;;
71296;SDS011;59082;50.658;4.608;2023-02-28T20:09:10;7.77;;;5.63;;
71296;SDS011;59082;50.658;4.608;2023-02-28T20:11:35;8.32;;;5.85;;
71296;SDS011;59082;50.658;4.608;2023-02-28T20:14:01;9.07;;;5.67;;
71296;SDS011;59082;50.658;4.608;2023-02-28T20:16:29;8.82;;;5.00;;
71296;SDS011;59082;50.658;4.608;2023-02-28T20:18:55;12.55;;;5.20;;
71296;SDS011;59082;50.658;4.608;2023-02-28T20:21:21;8.07;;;6.03;;
71296;SDS011;59082;50.658;4.608;2023-02-28T20:23:47;7.63;;;5.75;;
71296;SDS011;59082;50.658;4.608;2023-02-28T20:26:14;5.95;;;4.75;;
71296;SDS011;59082;50.658;4.608;2023-02-28T20:28:44;10.20;;;5.95;;
71296;SDS011;59082;50.658;4.608;2023-02-28T20:31:15;9.40;;;6.78;;
71296;SDS011;59082;50.658;4.608;2023-02-28T20:33:42;8.63;;;6.03;;
71296;SDS011;59082;50.658;4.608;2023-02-28T20:36:09;8.95;;;6.68;;
71296;SDS011;59082;50.658;4.608;2023-02-28T20:38:36;8.60;;;5.72;;
71296;SDS011;59082;50.658;4.608;2023-02-28T20:41:02;8.30;;;5.90;;
71296;SDS011;59082;50.658;4.608;2023-02-28T20:43:29;8.73;;;6.13;;
71296;SDS011;59082;50.658;4.608;2023-02-28T20:45:56;8.38;;;5.57;;
71296;SDS011;59082;50.658;4.608;2023-02-28T20:48:23;9.48;;;5.68;;
71296;SDS011;59082;50.658;4.608;2023-02-28T20:50:52;7.28;;;5.63;;
71296;SDS011;59082;50.658;4.608;2023-02-28T20:53:22;7.72;;;6.35;;
71296;SDS011;59082;50.658;4.608;2023-02-28T20:56:03;9.55;;;5.07;;
71296;SDS011;59082;50.658;4.608;2023-02-28T20:58:31;9.02;;;6.32;;
71296;SDS011;59082;50.658;4.608;2023-02-28T21:01:03;9.55;;;5.65;;
71296;SDS011;59082;50.658;4.608;2023-02-28T21:03:46;8.88;;;5.90;;
71296;SDS011;59082;50.658;4.608;2023-02-28T21:06:14;8.13;;;5.53;;
71296;SDS011;59082;50.658;4.608;2023-02-28T21:08:40;6.88;;;6.18;;
71296;SDS011;59082;50.658;4.608;2023-02-28T21:11:10;8.48;;;5.85;;
71296;SDS011;59082;50.658;4.608;2023-02-28T21:13:38;7.90;;;6.00;;
71296;SDS011;59082;50.658;4.608;2023-02-28T21:16:05;9.07;;;6.80;;
71296;SDS011;59082;50.658;4.608;2023-02-28T21:18:33;10.05;;;6.47;;
71296;SDS011;59082;50.658;4.608;2023-02-28T21:21:00;8.25;;;6.07;;
71296;SDS011;59082;50.658;4.608;2023-02-28T21:23:27;8.65;;;7.68;;
71296;SDS011;59082;50.658;4.608;2023-02-28T21:25:52;10.10;;;5.68;;
71296;SDS011;59082;50.658;4.608;2023-02-28T21:28:18;7.95;;;6.00;;
71296;SDS011;59082;50.658;4.608;2023-02-28T21:30:43;6.63;;;5.40;;
71296;SDS011;59082;50.658;4.608;2023-02-28T21:33:09;7.00;;;6.17;;
71296;SDS011;59082;50.658;4.608;2023-02-28T21:35:35;8.90;;;5.85;;
71296;SDS011;59082;50.658;4.608;2023-02-28T21:38:00;6.13;;;5.53;;
71296;SDS011;59082;50.658;4.608;2023-02-28T21:40:25;6.40;;;5.80;;
71296;SDS011;59082;50.658;4.608;2023-02-28T21:42:51;7.20;;;6.20;;
71296;SDS011;59082;50.658;4.608;2023-02-28T21:45:17;8.10;;;5.47;;
71296;SDS011;59082;50.658;4.608;2023-02-28T21:47:42;7.20;;;6.07;;
71296;SDS011;59082;50.658;4.608;2023-02-28T21:50:08;7.22;;;5.40;;
71296;SDS011;59082;50.658;4.608;2023-02-28T21:52:34;6.30;;;5.38;;
71296;SDS011;59082;50.658;4.608;2023-02-28T21:55:00;9.23;;;6.03;;
71296;SDS011;59082;50.658;4.608;2023-02-28T21:57:25;8.87;;;5.50;;
71296;SDS011;59082;50.658;4.608;2023-02-28T21:59:51;7.10;;;6.03;;
71296;SDS011;59082;50.658;4.608;2023-02-28T22:02:16;7.40;;;5.13;;
71296;SDS011;59082;50.658;4.608;2023-02-28T22:04:42;8.10;;;6.13;;
71296;SDS011;59082;50.658;4.608;2023-02-28T22:07:07;7.75;;;6.03;;
71296;SDS011;59082;50.658;4.608;2023-02-28T22:09:33;11.10;;;7.03;;
71296;SDS011;59082;50.658;4.608;2023-02-28T22:11:59;14.87;;;6.57;;
71296;SDS011;59082;50.658;4.608;2023-02-28T22:14:25;9.60;;;6.88;;
71296;SDS011;59082;50.658;4.608;2023-02-28T22:16:51;6.80;;;6.03;;
71296;SDS011;59082;50.658;4.608;2023-02-28T22:19:16;9.77;;;6.60;;
71296;SDS011;59082;50.658;4.608;2023-02-28T22:21:43;7.47;;;6.45;;
71296;SDS011;59082;50.658;4.608;2023-02-28T22:24:10;7.70;;;6.00;;
71296;SDS011;59082;50.658;4.608;2023-02-28T22:26:36;10.73;;;6.95;;
71296;SDS011;59082;50.658;4.608;2023-02-28T22:29:02;8.50;;;6.75;;
71296;SDS011;59082;50.658;4.608;2023-02-28T22:31:30;11.10;;;6.75;;
71296;SDS011;59082;50.658;4.608;2023-02-28T22:34:02;9.70;;;6.47;;
71296;SDS011;59082;50.658;4.608;2023-02-28T22:36:30;11.02;;;6.50;;
71296;SDS011;59082;50.658;4.608;2023-02-28T22:38:56;8.68;;;6.63;;
71296;SDS011;59082;50.658;4.608;2023-02-28T22:41:24;7.20;;;6.50;;
71296;SDS011;59082;50.658;4.608;2023-02-28T22:43:51;8.15;;;6.28;;
71296;SDS011;59082;50.658;4.608;2023-02-28T22:46:19;10.07;;;6.93;;
71296;SDS011;59082;50.658;4.608;2023-02-28T22:48:46;8.68;;;6.13;;
71296;SDS011;59082;50.658;4.608;2023-02-28T22:51:15;9.18;;;7.15;;
71296;SDS011;59082;50.658;4.608;2023-02-28T22:53:45;14.47;;;6.40;;
71296;SDS011;59082;50.658;4.608;2023-02-28T22:56:13;9.88;;;7.20;;
71296;SDS011;59082;50.658;4.608;2023-02-28T22:58:39;10.32;;;6.68;;
71296;SDS011;59082;50.658;4.608;2023-02-28T23:01:11;10.45;;;7.15;;
71296;SDS011;59082;50.658;4.608;2023-02-28T23:03:39;9.18;;;6.55;;
71296;SDS011;59082;50.658;4.608;2023-02-28T23:06:18;9.90;;;7.43;;
71296;SDS011;59082;50.658;4.608;2023-02-28T23:08:44;8.00;;;6.85;;
71296;SDS011;59082;50.658;4.608;2023-02-28T23:11:10;9.15;;;7.00;;
71296;SDS011;59082;50.658;4.608;2023-02-28T23:13:41;7.77;;;6.77;;
71296;SDS011;59082;50.658;4.608;2023-02-28T23:16:07;8.40;;;6.47;;
71296;SDS011;59082;50.658;4.608;2023-02-28T23:18:33;9.13;;;6.50;;
71296;SDS011;59082;50.658;4.608;2023-02-28T23:20:59;10.70;;;6.93;;
71296;SDS011;59082;50.658;4.608;2023-02-28T23:23:25;7.90;;;6.05;;
71296;SDS011;59082;50.658;4.608;2023-02-28T23:25:51;9.20;;;6.30;;
71296;SDS011;59082;50.658;4.608;2023-02-28T23:28:16;10.20;;;6.63;;
71296;SDS011;59082;50.658;4.608;2023-02-28T23:30:42;8.83;;;6.77;;
71296;SDS011;59082;50.658;4.608;2023-02-28T23:33:07;10.85;;;6.47;;
71296;SDS011;59082;50.658;4.608;2023-02-28T23:35:33;7.40;;;6.13;;
71296;SDS011;59082;50.658;4.608;2023-02-28T23:37:59;8.07;;;6.80;;
71296;SDS011;59082;50.658;4.608;2023-02-28T23:40:24;9.30;;;6.93;;